Time;durP1;ratioP1;P1;durP2;ratioP2;P2;SDS_P1;SDS_P2;PMS_P1;PMS_P2;Temp;Humidity;BMP_temperature;BMP_pressure;BME280_temperature;BME280_humidity;BME280_pressure;Samples;Min_cycle;Max_cycle;Signal;HPM_P1;HPM_P2
2021/11/05 00:02:01;;;;;;;29.57;16.73;;;7.10;99.90;;;;;;4973686;28;20702;-67
2021/11/05 00:04:27;;;;;;;23.80;17.40;;;7.20;99.90;;;;;;4973130;28;20686;-67
2021/11/05 00:06:52;;;;;;;26.07;16.83;;;7.20;99.90;;;;;;4973580;28;20183;-67
2021/11/05 00:09:18;;;;;;;21.47;14.60;;;7.20;99.90;;;;;;4973394;28;20544;-66
2021/11/05 00:11:44;;;;;;;24.70;16.60;;;7.20;99.90;;;;;;4973419;28;20545;-67
2021/11/05 00:14:09;;;;;;;25.90;17.50;;;7.30;99.90;;;;;;4972800;28;20190;-67
2021/11/05 00:16:35;;;;;;;24.90;16.07;;;7.30;99.90;;;;;;4973344;28;20167;-67
2021/11/05 00:19:00;;;;;;;22.00;14.73;;;7.20;99.90;;;;;;4973142;28;20167;-67
2021/11/05 00:21:26;;;;;;;31.97;17.43;;;7.20;99.90;;;;;;4973328;28;20170;-67
2021/11/05 00:23:51;;;;;;;22.67;15.50;;;7.20;99.90;;;;;;4972675;28;20207;-67
2021/11/05 00:26:17;;;;;;;22.30;14.93;;;7.30;99.90;;;;;;4973271;28;20179;-67
2021/11/05 00:28:42;;;;;;;22.13;15.80;;;7.30;99.90;;;;;;4973079;28;20178;-67
2021/11/05 00:31:08;;;;;;;25.17;16.23;;;7.30;99.90;;;;;;4973224;28;20173;-67
2021/11/05 00:33:33;;;;;;;23.13;14.50;;;7.30;99.90;;;;;;4972667;28;20289;-67
2021/11/05 00:35:59;;;;;;;21.57;16.10;;;7.40;99.90;;;;;;4973178;28;20169;-66
2021/11/05 00:38:24;;;;;;;24.10;16.60;;;7.40;99.90;;;;;;4973183;28;20189;-66
2021/11/05 00:40:50;;;;;;;25.00;15.50;;;7.40;99.90;;;;;;4973131;28;20163;-66
2021/11/05 00:43:16;;;;;;;23.97;16.30;;;7.40;99.90;;;;;;4972414;28;20198;-66
2021/11/05 00:45:41;;;;;;;22.83;16.10;;;7.30;99.90;;;;;;4973063;28;20632;-67
2021/11/05 00:48:07;;;;;;;25.43;17.50;;;7.40;99.90;;;;;;4972992;28;20166;-67
2021/11/05 00:50:33;;;;;;;22.93;14.07;;;7.40;99.90;;;;;;4972866;28;20227;-66
2021/11/05 00:52:59;;;;;;;23.87;16.10;;;7.40;99.90;;;;;;4975429;28;20204;-66
2021/11/05 00:55:25;;;;;;;25.17;17.77;;;7.40;99.90;;;;;;4976967;28;20520;-66
2021/11/05 00:57:51;;;;;;;24.77;15.50;;;7.30;99.90;;;;;;4976838;28;20980;-66
2021/11/05 01:00:17;;;;;;;24.53;15.80;;;7.30;99.90;;;;;;4977104;28;20414;-66
2021/11/05 01:02:44;;;;;;;21.53;13.67;;;7.20;99.90;;;;;;4976388;28;20537;-67
2021/11/05 01:05:12;;;;;;;21.80;14.97;;;7.20;99.90;;;;;;4976827;28;21070;-66
2021/11/05 01:07:38;;;;;;;19.77;14.73;;;7.20;99.90;;;;;;4976833;28;20476;-67
2021/11/05 01:10:04;;;;;;;21.67;15.07;;;7.20;99.90;;;;;;4976660;28;20440;-67
2021/11/05 01:12:30;;;;;;;19.50;13.20;;;7.20;99.90;;;;;;4976941;28;20467;-67
2021/11/05 01:14:56;;;;;;;24.83;14.80;;;7.30;99.90;;;;;;4976278;28;20793;-67
2021/11/05 01:17:22;;;;;;;22.30;16.90;;;7.30;99.90;;;;;;4976608;28;20647;-67
2021/11/05 01:19:48;;;;;;;22.33;14.20;;;7.30;99.90;;;;;;4976531;28;20171;-67
2021/11/05 01:22:13;;;;;;;22.20;15.47;;;7.30;99.90;;;;;;4976806;28;20206;-67
2021/11/05 01:24:39;;;;;;;25.77;16.30;;;7.30;99.90;;;;;;4975969;28;20231;-67
2021/11/05 01:27:05;;;;;;;25.00;15.73;;;7.30;99.90;;;;;;4976379;28;20523;-67
2021/11/05 01:29:30;;;;;;;26.07;14.70;;;7.30;99.90;;;;;;4976428;28;20249;-67
2021/11/05 01:31:56;;;;;;;22.53;16.33;;;7.40;99.90;;;;;;4976375;28;20497;-67
2021/11/05 01:34:22;;;;;;;22.50;15.20;;;7.40;99.90;;;;;;4975966;28;20198;-67
2021/11/05 01:36:48;;;;;;;25.70;15.37;;;7.40;99.90;;;;;;4976407;28;20768;-67
2021/11/05 01:39:15;;;;;;;31.20;18.50;;;7.40;99.90;;;;;;4976241;28;20421;-67
2021/11/05 01:41:42;;;;;;;30.20;19.50;;;7.30;99.90;;;;;;4976159;28;20167;-67
2021/11/05 01:44:07;;;;;;;31.50;18.23;;;7.30;99.90;;;;;;4975782;28;20490;-67
2021/11/05 01:46:33;;;;;;;32.20;20.10;;;7.30;99.90;;;;;;4976119;28;20521;-67
2021/11/05 01:48:59;;;;;;;31.30;19.40;;;7.30;99.90;;;;;;4976042;28;20185;-66
2021/11/05 01:51:25;;;;;;;25.97;18.07;;;7.30;99.90;;;;;;4976106;28;20406;-66
2021/11/05 01:53:50;;;;;;;35.13;18.13;;;7.30;99.90;;;;;;4975580;28;20292;-66
2021/11/05 01:56:16;;;;;;;26.30;18.90;;;7.30;99.90;;;;;;4975892;28;20183;-66
2021/11/05 01:58:42;;;;;;;25.10;18.00;;;7.40;99.90;;;;;;4975878;28;20174;-66
2021/11/05 02:01:08;;;;;;;24.70;17.20;;;7.40;99.90;;;;;;4975882;28;20568;-66
2021/11/05 02:03:33;;;;;;;22.23;16.87;;;7.40;99.90;;;;;;4975422;28;20437;-66
2021/11/05 02:06:01;;;;;;;27.80;17.10;;;7.40;99.90;;;;;;4975808;28;20185;-66
2021/11/05 02:08:27;;;;;;;18.70;13.60;;;7.40;99.90;;;;;;4975802;28;20640;-66
2021/11/05 02:10:55;;;;;;;21.23;14.77;;;7.50;99.90;;;;;;4975582;28;20553;-66
2021/11/05 02:13:21;;;;;;;26.60;16.77;;;7.50;99.90;;;;;;4975253;28;20798;-66
2021/11/05 02:15:48;;;;;;;24.37;16.57;;;7.50;99.90;;;;;;4975623;28;20881;-66
2021/11/05 02:18:15;;;;;;;21.97;15.77;;;7.50;99.90;;;;;;4975612;28;20410;-66
2021/11/05 02:20:43;;;;;;;20.43;13.57;;;7.50;99.90;;;;;;4975507;28;20949;-66
2021/11/05 02:23:09;;;;;;;22.43;15.20;;;7.50;99.90;;;;;;4974935;28;20418;-66
2021/11/05 02:25:34;;;;;;;22.73;14.10;;;7.50;99.90;;;;;;4975324;28;20496;-66
2021/11/05 02:28:00;;;;;;;22.30;15.33;;;7.50;99.90;;;;;;4975371;28;20202;-66
2021/11/05 02:30:25;;;;;;;20.00;13.50;;;7.50;99.90;;;;;;4975216;28;20699;-66
2021/11/05 02:32:52;;;;;;;19.23;11.30;;;7.50;99.90;;;;;;4974881;28;20203;-66
2021/11/05 02:35:18;;;;;;;17.33;11.43;;;7.50;99.90;;;;;;4975217;28;20195;-66
2021/11/05 02:37:46;;;;;;;18.90;13.57;;;7.50;99.90;;;;;;4975127;28;20497;-66
2021/11/05 02:40:13;;;;;;;25.50;14.43;;;7.40;99.90;;;;;;4975074;28;20489;-66
2021/11/05 02:42:39;;;;;;;20.30;14.40;;;7.50;99.90;;;;;;4975049;28;20406;-66
2021/11/05 02:45:05;;;;;;;23.67;14.97;;;7.50;99.90;;;;;;4974770;28;20437;-66
2021/11/05 02:47:31;;;;;;;18.57;12.63;;;7.50;99.90;;;;;;4974974;28;20417;-66
2021/11/05 02:50:00;;;;;;;24.10;16.40;;;7.50;99.90;;;;;;4974936;28;20406;-65
2021/11/05 02:52:26;;;;;;;22.03;16.40;;;7.40;99.90;;;;;;4974707;28;20457;-66
2021/11/05 02:54:52;;;;;;;20.70;15.37;;;7.50;99.90;;;;;;4974509;28;20487;-66
2021/11/05 02:57:17;;;;;;;24.97;14.53;;;7.40;99.90;;;;;;4974868;28;20194;-66
2021/11/05 02:59:43;;;;;;;16.57;11.57;;;7.40;99.90;;;;;;4974571;28;20175;-66
2021/11/05 03:02:09;;;;;;;17.67;11.93;;;7.40;99.90;;;;;;4975151;28;20298;-66
2021/11/05 03:04:37;;;;;;;15.90;11.37;;;7.40;99.90;;;;;;4974364;28;21039;-66
2021/11/05 03:07:06;;;;;;;18.17;11.70;;;7.40;99.90;;;;;;4974591;28;20171;-66
2021/11/05 03:09:34;;;;;;;16.07;12.37;;;7.40;99.90;;;;;;4974501;28;20468;-66
2021/11/05 03:12:00;;;;;;;14.87;9.63;;;7.30;99.90;;;;;;4974495;28;20426;-66
2021/11/05 03:14:27;;;;;;;18.73;10.00;;;7.40;99.90;;;;;;4973515;28;20430;-66
2021/11/05 03:16:53;;;;;;;14.03;11.47;;;7.30;99.90;;;;;;4974490;28;20414;-66
2021/11/05 03:19:19;;;;;;;20.63;14.47;;;7.40;99.90;;;;;;4974325;28;20402;-66
2021/11/05 03:21:45;;;;;;;18.00;12.80;;;7.40;99.90;;;;;;4974360;28;20581;-66
2021/11/05 03:24:11;;;;;;;14.10;10.70;;;7.40;99.90;;;;;;4973858;28;20473;-66
2021/11/05 03:26:36;;;;;;;16.07;12.60;;;7.40;99.90;;;;;;4974331;28;20489;-66
2021/11/05 03:29:03;;;;;;;15.47;11.10;;;7.40;99.90;;;;;;4974291;28;20493;-66
2021/11/05 03:31:28;;;;;;;18.50;12.93;;;7.40;99.90;;;;;;4974238;28;20182;-66
2021/11/05 03:33:54;;;;;;;17.63;13.37;;;7.30;99.90;;;;;;4973768;28;20784;-66
2021/11/05 03:36:20;;;;;;;19.60;12.10;;;7.30;99.90;;;;;;4974102;28;20174;-66
2021/11/05 03:38:45;;;;;;;16.63;12.00;;;7.40;99.90;;;;;;4974038;28;20176;-66
2021/11/05 03:41:11;;;;;;;17.10;12.90;;;7.40;99.90;;;;;;4974102;28;20167;-67
2021/11/05 03:43:37;;;;;;;24.07;15.27;;;7.40;99.90;;;;;;4973570;28;20201;-66
2021/11/05 03:46:04;;;;;;;24.43;14.90;;;7.40;99.90;;;;;;4973984;28;20185;-66
2021/11/05 03:48:34;;;;;;;22.60;14.70;;;7.40;99.90;;;;;;4974373;28;20226;-66
2021/11/05 03:51:00;;;;;;;21.30;13.37;;;7.50;99.90;;;;;;4973769;28;20779;-66
2021/11/05 03:53:25;;;;;;;24.27;16.20;;;7.50;99.90;;;;;;4973368;28;20456;-66
2021/11/05 03:55:51;;;;;;;25.90;16.97;;;7.40;99.90;;;;;;4973762;28;20403;-66
2021/11/05 03:58:17;;;;;;;18.93;13.73;;;7.40;99.90;;;;;;4973754;28;20171;-66
2021/11/05 04:00:43;;;;;;;20.00;13.27;;;7.40;99.90;;;;;;4973614;28;20660;-66
2021/11/05 04:03:08;;;;;;;23.90;13.67;;;7.40;99.90;;;;;;4973347;28;20175;-66
2021/11/05 04:05:34;;;;;;;23.47;15.40;;;7.40;99.90;;;;;;4973450;28;20433;-66
2021/11/05 04:07:59;;;;;;;21.47;14.70;;;7.50;99.90;;;;;;4973562;28;20178;-67
2021/11/05 04:10:25;;;;;;;20.40;12.70;;;7.40;99.90;;;;;;4973505;28;20175;-67
2021/11/05 04:12:51;;;;;;;20.60;14.40;;;7.50;99.90;;;;;;4973124;28;20212;-66
2021/11/05 04:15:16;;;;;;;19.53;14.10;;;7.40;99.90;;;;;;4973301;28;20433;-66
2021/11/05 04:17:42;;;;;;;22.13;14.30;;;7.40;99.90;;;;;;4973385;28;20178;-66
2021/11/05 04:20:09;;;;;;;22.47;15.77;;;7.40;99.90;;;;;;4973287;28;20724;-67
2021/11/05 04:22:34;;;;;;;33.10;15.17;;;7.40;99.90;;;;;;4973344;28;20182;-67
2021/11/05 04:25:00;;;;;;;16.70;13.40;;;7.30;99.90;;;;;;4973195;28;20457;-66
2021/11/05 04:27:25;;;;;;;21.90;13.90;;;7.30;99.90;;;;;;4972514;28;20174;-66
2021/11/05 04:29:51;;;;;;;22.20;15.37;;;7.30;99.90;;;;;;4973167;28;20194;-67
2021/11/05 04:32:16;;;;;;;29.97;16.87;;;7.30;99.90;;;;;;4973561;28;20199;-67
2021/11/05 04:34:42;;;;;;;19.53;14.60;;;7.20;99.90;;;;;;4972772;28;20250;-66
2021/11/05 04:37:08;;;;;;;22.33;15.23;;;7.20;99.90;;;;;;4973204;28;20186;-66
2021/11/05 04:39:33;;;;;;;23.10;14.47;;;7.30;99.90;;;;;;4973090;28;20167;-66
2021/11/05 04:42:01;;;;;;;22.07;15.90;;;7.20;99.90;;;;;;4973053;28;20178;-67
2021/11/05 04:44:27;;;;;;;21.30;14.33;;;7.20;99.90;;;;;;4972678;28;20183;-66
2021/11/05 04:46:52;;;;;;;32.83;16.77;;;7.20;99.90;;;;;;4973172;28;21067;-66
2021/11/05 04:49:18;;;;;;;24.37;15.63;;;7.30;99.90;;;;;;4972985;28;20253;-66
2021/11/05 04:51:44;;;;;;;25.87;16.10;;;7.30;99.90;;;;;;4973002;28;20220;-66
2021/11/05 04:54:09;;;;;;;21.27;14.60;;;7.30;99.90;;;;;;4972572;28;20237;-66
2021/11/05 04:56:35;;;;;;;19.87;16.13;;;7.30;99.90;;;;;;4972941;28;20413;-66
2021/11/05 04:59:02;;;;;;;23.20;15.33;;;7.20;99.90;;;;;;4972923;28;20182;-66
2021/11/05 05:01:28;;;;;;;23.00;16.63;;;7.20;99.90;;;;;;4972870;28;20174;-66
2021/11/05 05:03:54;;;;;;;18.13;15.67;;;7.20;99.90;;;;;;4972513;28;20467;-67
2021/11/05 05:06:19;;;;;;;17.50;13.60;;;7.30;99.90;;;;;;4972901;28;20815;-66
2021/11/05 05:08:45;;;;;;;19.70;14.20;;;7.30;99.90;;;;;;4972834;28;20657;-66
2021/11/05 05:11:12;;;;;;;16.57;13.13;;;7.30;99.90;;;;;;4972937;28;20206;-66
2021/11/05 05:13:38;;;;;;;19.30;13.70;;;7.30;99.90;;;;;;4972440;28;20240;-66
2021/11/05 05:16:04;;;;;;;20.93;15.20;;;7.40;99.90;;;;;;4972771;28;20416;-66
2021/11/05 05:18:29;;;;;;;30.77;16.83;;;7.30;99.90;;;;;;4972750;28;20965;-66
2021/11/05 05:20:55;;;;;;;26.40;17.77;;;7.30;99.90;;;;;;4972713;28;20194;-66
2021/11/05 05:23:21;;;;;;;25.13;15.00;;;7.30;99.90;;;;;;4972871;28;20217;-67
2021/11/05 05:25:47;;;;;;;23.90;16.37;;;7.20;99.90;;;;;;4972779;28;20414;-67
2021/11/05 05:28:12;;;;;;;24.67;16.20;;;7.20;99.90;;;;;;4972767;28;20189;-67
2021/11/05 05:30:38;;;;;;;20.83;16.07;;;7.20;99.90;;;;;;4973140;28;20174;-67
2021/11/05 05:33:04;;;;;;;25.47;18.13;;;7.20;99.90;;;;;;4971035;28;20195;-67
2021/11/05 05:35:30;;;;;;;23.50;16.77;;;7.10;99.90;;;;;;4972819;28;20269;-67
2021/11/05 05:37:56;;;;;;;26.93;18.20;;;7.20;99.90;;;;;;4973674;28;20171;-67
2021/11/05 05:40:22;;;;;;;23.07;16.50;;;7.10;99.90;;;;;;4976231;28;20922;-67
2021/11/05 05:42:48;;;;;;;26.63;18.77;;;7.20;99.90;;;;;;4976306;28;20225;-67
2021/11/05 05:45:14;;;;;;;21.93;15.87;;;7.10;99.90;;;;;;4975964;28;20425;-67
2021/11/05 05:47:41;;;;;;;22.93;16.50;;;7.20;99.90;;;;;;4976163;28;20414;-67
2021/11/05 05:50:11;;;;;;;24.80;17.07;;;7.20;99.90;;;;;;4975981;28;20485;-67
2021/11/05 05:52:37;;;;;;;16.50;14.50;;;7.20;99.90;;;;;;4975923;28;20543;-67
2021/11/05 05:55:04;;;;;;;26.03;17.47;;;7.30;99.90;;;;;;4975700;28;20916;-67
2021/11/05 05:57:30;;;;;;;23.17;16.83;;;7.20;99.90;;;;;;4975952;28;20170;-67
2021/11/05 05:59:56;;;;;;;24.57;18.70;;;7.20;99.90;;;;;;4975741;28;20413;-67
2021/11/05 06:02:21;;;;;;;24.23;17.30;;;7.20;99.90;;;;;;4975907;28;20687;-67
2021/11/05 06:04:47;;;;;;;23.03;17.30;;;7.20;99.90;;;;;;4975457;28;20289;-67
2021/11/05 06:07:12;;;;;;;25.43;17.57;;;7.10;99.90;;;;;;4975824;28;20179;-67
2021/11/05 06:09:38;;;;;;;24.80;18.13;;;7.00;99.90;;;;;;4975600;28;20206;-67
2021/11/05 06:12:04;;;;;;;27.20;17.53;;;7.00;99.90;;;;;;4975640;28;20198;-67
2021/11/05 06:14:29;;;;;;;21.83;17.87;;;7.00;99.90;;;;;;4975116;28;20194;-67
2021/11/05 06:16:55;;;;;;;22.83;17.20;;;7.10;99.90;;;;;;4975604;28;20492;-67
2021/11/05 06:19:21;;;;;;;31.60;18.50;;;7.10;99.90;;;;;;4975678;28;20171;-67
2021/11/05 06:21:46;;;;;;;23.90;15.50;;;7.10;99.90;;;;;;4975531;28;20178;-67
2021/11/05 06:24:12;;;;;;;25.80;17.27;;;7.00;99.90;;;;;;4975013;28;20210;-67
2021/11/05 06:26:37;;;;;;;21.63;15.53;;;7.00;99.90;;;;;;4975756;28;20185;-67
2021/11/05 06:29:03;;;;;;;21.60;16.90;;;7.00;99.90;;;;;;4975224;28;20182;-67
2021/11/05 06:31:35;;;;;;;21.10;15.00;;;7.00;99.90;;;;;;4975316;28;20186;-66
2021/11/05 06:34:02;;;;;;;25.77;15.60;;;7.00;99.90;;;;;;4974851;28;20598;-67
2021/11/05 06:36:27;;;;;;;18.63;15.07;;;7.10;99.90;;;;;;4975314;28;20402;-67
2021/11/05 06:38:53;;;;;;;23.50;15.70;;;7.10;99.90;;;;;;4975141;28;20410;-67
2021/11/05 06:41:19;;;;;;;22.90;16.27;;;7.10;99.90;;;;;;4975171;28;20170;-67
2021/11/05 06:43:45;;;;;;;17.67;15.00;;;7.00;99.90;;;;;;4974845;28;20564;-67
2021/11/05 06:46:12;;;;;;;20.50;16.03;;;7.00;99.90;;;;;;4975130;28;20475;-67
2021/11/05 06:48:37;;;;;;;16.50;12.37;;;7.00;99.90;;;;;;4974882;28;20217;-67
2021/11/05 06:51:03;;;;;;;16.97;12.27;;;7.00;99.90;;;;;;4974187;28;20410;-67
2021/11/05 06:53:28;;;;;;;13.80;11.67;;;7.00;99.90;;;;;;4974483;28;20653;-67
2021/11/05 06:55:54;;;;;;;14.00;11.07;;;6.90;99.90;;;;;;4974909;28;20170;-67
2021/11/05 06:58:20;;;;;;;15.63;12.73;;;6.90;99.90;;;;;;4974791;28;20248;-67
2021/11/05 07:00:48;;;;;;;14.70;10.83;;;6.90;99.90;;;;;;4974778;28;20171;-67
2021/11/05 07:03:14;;;;;;;14.47;11.80;;;6.90;99.90;;;;;;4974347;28;20779;-67
2021/11/05 07:05:40;;;;;;;13.40;11.33;;;6.90;99.90;;;;;;4974717;28;20414;-67
2021/11/05 07:08:06;;;;;;;13.43;10.00;;;7.00;99.90;;;;;;4974692;28;20421;-67
2021/11/05 07:10:32;;;;;;;11.43;8.70;;;7.00;99.90;;;;;;4974566;28;20996;-67
2021/11/05 07:12:57;;;;;;;12.73;11.43;;;7.00;99.90;;;;;;4974162;28;20202;-67
2021/11/05 07:15:23;;;;;;;14.57;12.03;;;7.00;99.90;;;;;;4974394;28;20435;-67
2021/11/05 07:17:48;;;;;;;11.67;10.10;;;7.00;99.90;;;;;;4974533;28;20170;-67
2021/11/05 07:20:15;;;;;;;14.50;10.43;;;7.00;99.90;;;;;;4974373;28;20524;-67
2021/11/05 07:22:43;;;;;;;15.20;10.77;;;7.00;99.90;;;;;;4974127;28;20185;-67
2021/11/05 07:25:11;;;;;;;14.63;10.83;;;7.00;99.90;;;;;;4974170;28;20453;-66
2021/11/05 07:27:37;;;;;;;14.20;11.47;;;7.00;99.90;;;;;;4974247;28;20414;-67
2021/11/05 07:30:07;;;;;;;16.23;11.90;;;7.00;99.90;;;;;;4974254;28;20418;-67
2021/11/05 07:32:33;;;;;;;18.77;13.80;;;7.00;99.90;;;;;;4974199;28;20456;-67
2021/11/05 07:34:59;;;;;;;14.20;11.47;;;7.10;99.90;;;;;;4974045;28;20484;-67
2021/11/05 07:37:24;;;;;;;17.50;11.37;;;7.10;99.90;;;;;;4974178;28;20175;-67
2021/11/05 07:39:50;;;;;;;16.87;13.03;;;7.20;99.90;;;;;;4973993;28;20167;-67
2021/11/05 07:42:16;;;;;;;14.43;11.97;;;7.20;99.90;;;;;;4974231;28;20190;-67
2021/11/05 07:44:42;;;;;;;16.93;12.30;;;7.30;99.90;;;;;;4973535;28;20433;-67
2021/11/05 07:47:08;;;;;;;15.73;11.23;;;7.30;99.90;;;;;;4974139;28;20406;-67
2021/11/05 07:49:34;;;;;;;21.30;12.47;;;7.30;99.90;;;;;;4973830;28;20189;-67
2021/11/05 07:52:00;;;;;;;17.77;12.27;;;7.30;99.90;;;;;;4973748;28;20171;-67
2021/11/05 07:54:26;;;;;;;16.00;11.30;;;7.30;99.90;;;;;;4973285;28;20441;-67
2021/11/05 07:56:51;;;;;;;16.43;13.00;;;7.30;99.90;;;;;;4973810;28;20432;-67
2021/11/05 07:59:17;;;;;;;15.70;10.93;;;7.30;99.90;;;;;;4973744;28;20310;-67
2021/11/05 08:01:43;;;;;;;20.13;11.90;;;7.40;99.90;;;;;;4973616;28;20185;-67
2021/11/05 08:04:09;;;;;;;14.93;11.03;;;7.30;99.90;;;;;;4973262;28;20438;-67
2021/11/05 08:06:34;;;;;;;14.83;11.77;;;7.30;99.90;;;;;;4973734;28;20178;-67
2021/11/05 08:09:01;;;;;;;16.40;11.30;;;7.30;99.90;;;;;;4972141;28;20213;-67
2021/11/05 08:11:29;;;;;;;14.27;10.67;;;7.40;99.90;;;;;;4973573;28;20729;-67
2021/11/05 08:13:56;;;;;;;11.20;9.83;;;7.40;99.90;;;;;;4973010;28;20461;-67
2021/11/05 08:16:22;;;;;;;12.93;10.70;;;7.30;99.90;;;;;;4973487;28;20464;-67
2021/11/05 08:18:49;;;;;;;12.70;10.23;;;7.40;99.90;;;;;;4973657;28;20463;-67
2021/11/05 08:21:14;;;;;;;12.87;9.30;;;7.50;99.90;;;;;;4973426;28;20414;-67
2021/11/05 08:23:40;;;;;;;14.47;10.67;;;7.50;99.90;;;;;;4972693;28;20445;-67
2021/11/05 08:26:06;;;;;;;16.00;11.33;;;7.50;99.90;;;;;;4973338;28;20225;-67
2021/11/05 08:28:33;;;;;;;15.73;10.53;;;7.50;99.90;;;;;;4973318;28;20509;-67
2021/11/05 08:30:59;;;;;;;16.40;12.27;;;7.50;99.90;;;;;;4973327;28;20422;-67
2021/11/05 08:33:25;;;;;;;16.03;11.87;;;7.60;99.90;;;;;;4972744;28;20454;-67
2021/11/05 08:35:52;;;;;;;15.10;12.33;;;7.50;99.90;;;;;;4973639;28;20417;-67
2021/11/05 08:38:25;;;;;;;13.93;10.93;;;7.50;99.90;;;;;;4973012;28;20473;-67
2021/11/05 08:40:53;;;;;;;21.03;13.70;;;7.50;99.90;;;;;;4973090;28;20418;-67
2021/11/05 08:43:22;;;;;;;16.50;13.67;;;7.50;99.90;;;;;;4972585;28;20422;-67
2021/11/05 08:45:48;;;;;;;17.17;13.13;;;7.50;99.90;;;;;;4973218;28;20417;-67
2021/11/05 08:48:14;;;;;;;20.43;14.47;;;7.60;99.90;;;;;;4986333;28;20439;-67
2021/11/05 08:50:40;;;;;;;16.03;12.77;;;7.60;99.90;;;;;;4991788;28;20909;-67
2021/11/05 08:53:06;;;;;;;15.30;12.80;;;7.60;99.90;;;;;;4991991;28;20499;-67
2021/11/05 08:55:32;;;;;;;17.90;14.37;;;7.70;99.90;;;;;;4992416;28;20925;-67
2021/11/05 08:57:58;;;;;;;17.37;12.40;;;7.80;99.90;;;;;;4992265;28;20410;-67
2021/11/05 09:00:27;;;;;;;16.37;12.73;;;7.80;99.90;;;;;;4992205;28;20642;-67
2021/11/05 09:02:53;;;;;;;14.47;11.63;;;7.80;99.90;;;;;;4992099;28;20170;-67
2021/11/05 09:05:19;;;;;;;16.90;13.00;;;7.80;99.90;;;;;;4992553;28;20784;-67
2021/11/05 09:07:45;;;;;;;13.80;10.60;;;7.90;99.90;;;;;;4992302;28;20670;-67
2021/11/05 09:10:11;;;;;;;16.47;13.43;;;7.90;99.90;;;;;;4992404;28;20409;-67
2021/11/05 09:12:38;;;;;;;16.83;11.50;;;7.90;99.90;;;;;;4992555;28;20464;-67
2021/11/05 09:15:10;;;;;;;11.77;10.10;;;7.90;99.90;;;;;;4996002;28;20424;-67
2021/11/05 09:17:38;;;;;;;21.43;12.33;;;8.00;99.90;;;;;;4996210;28;20437;-67
2021/11/05 09:20:06;;;;;;;19.77;12.23;;;8.10;99.90;;;;;;4995942;28;20412;-67
2021/11/05 09:22:31;;;;;;;16.33;12.20;;;8.00;99.90;;;;;;4995935;28;20425;-67
2021/11/05 09:24:57;;;;;;;14.83;11.97;;;8.00;99.90;;;;;;4995904;28;20451;-67
2021/11/05 09:27:23;;;;;;;16.70;13.37;;;8.00;99.90;;;;;;4996011;28;20177;-67
2021/11/05 09:29:49;;;;;;;21.40;15.43;;;8.10;99.90;;;;;;4995976;28;20174;-67
2021/11/05 09:32:15;;;;;;;18.73;13.30;;;8.20;99.90;;;;;;4995831;28;20492;-67
2021/11/05 09:34:40;;;;;;;19.43;13.33;;;8.20;99.90;;;;;;4995386;28;20532;-67
2021/11/05 09:37:07;;;;;;;21.50;13.33;;;8.30;99.90;;;;;;4995881;28;20162;-67
2021/11/05 09:39:33;;;;;;;18.73;14.10;;;8.30;99.90;;;;;;4995795;28;20186;-67
2021/11/05 09:42:00;;;;;;;18.43;12.40;;;8.30;99.90;;;;;;4995767;28;20496;-67
2021/11/05 09:44:26;;;;;;;20.07;14.03;;;8.30;99.90;;;;;;4995270;28;20933;-67
2021/11/05 09:46:53;;;;;;;20.17;15.07;;;8.40;99.90;;;;;;4995685;28;20932;-67
2021/11/05 09:49:19;;;;;;;18.27;13.07;;;8.40;99.90;;;;;;4995500;28;20409;-67
2021/11/05 09:51:45;;;;;;;19.43;14.13;;;8.40;99.90;;;;;;4995546;28;20397;-67
2021/11/05 09:54:12;;;;;;;17.87;14.07;;;8.40;99.90;;;;;;4995097;28;20460;-67
2021/11/05 09:56:38;;;;;;;18.50;14.13;;;8.40;99.90;;;;;;4995529;28;20535;-67
2021/11/05 09:59:03;;;;;;;16.70;13.40;;;8.40;99.90;;;;;;4995331;28;20777;-67
2021/11/05 10:01:29;;;;;;;16.07;12.47;;;8.40;99.90;;;;;;4995331;28;20404;-67
2021/11/05 10:03:55;;;;;;;25.87;14.53;;;8.40;99.90;;;;;;4994995;28;20329;-67
2021/11/05 10:06:23;;;;;;;17.93;14.77;;;8.40;99.90;;;;;;4995352;28;20177;-67
2021/11/05 10:08:53;;;;;;;21.37;16.50;;;8.50;99.90;;;;;;4995333;28;20206;-67
2021/11/05 10:11:32;;;;;;;19.53;14.67;;;8.50;99.90;;;;;;4995197;28;20463;-67
2021/11/05 10:13:59;;;;;;;22.87;14.10;;;8.40;99.90;;;;;;4994551;28;20489;-67
2021/11/05 10:16:27;;;;;;;21.03;16.90;;;8.40;99.90;;;;;;4995136;28;20408;-67
2021/11/05 10:19:04;;;;;;;24.30;16.00;;;8.50;99.90;;;;;;4995012;28;20408;-67
2021/11/05 10:21:40;;;;;;;22.13;14.33;;;8.40;99.90;;;;;;4995372;28;20405;-67
2021/11/05 10:24:17;;;;;;;20.00;14.47;;;8.40;99.90;;;;;;4993484;28;21003;-67
2021/11/05 10:26:44;;;;;;;14.17;12.40;;;8.50;99.90;;;;;;4994823;28;20922;-67
2021/11/05 10:29:26;;;;;;;18.87;15.90;;;8.60;99.90;;;;;;4994837;28;20413;-67
2021/11/05 10:32:03;;;;;;;20.70;15.20;;;8.60;99.90;;;;;;4994873;28;20500;-67
2021/11/05 10:34:54;;;;;;;21.67;14.90;;;8.50;99.90;;;;;;4994294;28;20479;-67
2021/11/05 10:37:33;;;;;;;17.97;14.10;;;8.50;99.90;;;;;;4994763;28;20463;-67
2021/11/05 10:40:00;;;;;;;22.90;15.53;;;8.60;99.90;;;;;;4994616;28;20500;-67
2021/11/05 10:42:34;;;;;;;21.87;15.07;;;8.70;99.90;;;;;;4994708;28;20405;-67
2021/11/05 10:45:09;;;;;;;17.80;14.63;;;8.80;99.90;;;;;;4994201;28;20421;-67
2021/11/05 10:47:35;;;;;;;15.93;14.23;;;8.90;99.90;;;;;;4994489;28;20516;-67
2021/11/05 10:50:11;;;;;;;18.77;14.00;;;8.80;99.90;;;;;;4994419;28;20492;-67
2021/11/05 10:52:36;;;;;;;16.00;12.70;;;8.90;99.90;;;;;;4994310;28;20197;-67
2021/11/05 10:55:02;;;;;;;17.20;13.70;;;9.10;99.90;;;;;;4994122;28;20915;-67
2021/11/05 10:57:40;;;;;;;17.30;15.50;;;9.00;99.90;;;;;;4994284;28;20635;-67
2021/11/05 11:00:28;;;;;;;14.73;12.83;;;9.10;99.90;;;;;;4994232;28;20576;-67
2021/11/05 11:02:54;;;;;;;16.70;12.70;;;9.10;99.90;;;;;;4994031;28;20416;-67
2021/11/05 11:05:33;;;;;;;17.07;13.67;;;9.20;99.90;;;;;;4994128;28;20989;-67
2021/11/05 11:08:00;;;;;;;15.03;11.17;;;9.30;99.90;;;;;;4994188;28;20197;-67
2021/11/05 11:10:35;;;;;;;13.83;11.10;;;9.30;99.90;;;;;;4993885;28;20898;-67
2021/11/05 11:13:01;;;;;;;12.77;10.97;;;9.20;99.90;;;;;;4993701;28;20457;-67
2021/11/05 11:15:36;;;;;;;12.80;9.43;;;9.20;99.90;;;;;;4993919;28;20425;-67
2021/11/05 11:18:03;;;;;;;15.63;12.87;;;9.10;99.90;;;;;;4994039;28;20405;-67
2021/11/05 11:20:31;;;;;;;12.43;11.13;;;9.10;99.90;;;;;;4993977;28;20416;-67
2021/11/05 11:22:57;;;;;;;13.40;11.70;;;9.10;99.90;;;;;;4994037;28;20405;-66
2021/11/05 11:25:23;;;;;;;15.20;12.30;;;9.10;99.90;;;;;;4993698;28;20453;-67
2021/11/05 11:27:49;;;;;;;17.80;13.60;;;9.10;99.90;;;;;;4978397;28;20817;-67
2021/11/05 11:30:18;;;;;;;13.60;9.30;;;9.20;99.90;;;;;;4973717;28;20424;-66
2021/11/05 11:32:44;;;;;;;12.77;11.43;;;9.30;99.90;;;;;;4973636;28;20201;-67
2021/11/05 11:35:11;;;;;;;11.00;9.90;;;9.30;99.90;;;;;;4973786;28;20429;-67
2021/11/05 11:37:38;;;;;;;12.23;11.10;;;9.30;99.90;;;;;;4973888;28;20945;-67
2021/11/05 11:40:04;;;;;;;12.00;10.00;;;9.30;99.90;;;;;;4974071;28;20449;-67
2021/11/05 11:42:30;;;;;;;12.23;10.53;;;9.40;99.90;;;;;;4984803;28;20425;-67
2021/11/05 11:44:56;;;;;;;12.83;10.50;;;9.30;99.90;;;;;;4978332;28;20442;-66
2021/11/05 11:47:22;;;;;;;16.63;10.20;;;9.30;99.90;;;;;;4974025;28;20540;-67
2021/11/05 11:49:49;;;;;;;11.17;10.17;;;9.30;99.90;;;;;;4972776;28;20425;-67
2021/11/05 11:52:14;;;;;;;10.73;9.73;;;9.30;99.90;;;;;;4973278;28;21001;-66
2021/11/05 11:54:41;;;;;;;11.63;10.50;;;9.40;99.90;;;;;;4973338;28;20529;-67
2021/11/05 11:57:15;;;;;;;10.33;9.27;;;9.50;99.90;;;;;;4973609;28;20209;-67
2021/11/05 11:59:42;;;;;;;12.07;9.97;;;9.50;99.90;;;;;;4973364;28;20434;-67
2021/11/05 12:02:31;;;;;;;10.23;9.33;;;9.60;99.90;;;;;;4973644;28;20398;-67
2021/11/05 12:04:56;;;;;;;15.30;9.30;;;9.50;99.90;;;;;;4972896;28;20452;-67
2021/11/05 12:07:22;;;;;;;13.57;10.67;;;9.60;99.90;;;;;;4973369;28;20488;-66
2021/11/05 12:09:47;;;;;;;10.37;9.30;;;9.60;99.90;;;;;;4973329;28;20205;-67
2021/11/05 12:12:22;;;;;;;12.77;8.63;;;9.60;99.90;;;;;;4973093;28;20209;-66
2021/11/05 12:15:02;;;;;;;16.90;12.13;;;9.80;99.90;;;;;;4973035;28;20186;-67
2021/11/05 12:17:45;;;;;;;9.80;8.80;;;10.30;99.90;;;;;;4972708;28;20819;-67
2021/11/05 12:20:29;;;;;;;8.10;7.40;;;11.50;99.90;;;;;;4973056;28;20903;-67
2021/11/05 12:23:10;;;;;;;9.13;7.93;;;11.80;99.90;;;;;;4973085;28;20409;-67
2021/11/05 12:25:43;;;;;;;8.23;7.10;;;11.70;99.90;;;;;;4973306;28;20437;-67
2021/11/05 12:28:39;;;;;;;7.50;6.80;;;11.40;99.90;;;;;;4973340;28;20412;-67
2021/11/05 12:31:25;;;;;;;8.97;7.67;;;11.30;99.90;;;;;;4973301;28;20508;-67
2021/11/05 12:33:52;;;;;;;8.23;7.27;;;11.00;99.90;;;;;;4972738;28;20493;-67
2021/11/05 12:36:18;;;;;;;9.43;8.50;;;10.90;99.90;;;;;;4972935;28;20903;-67
2021/11/05 12:39:05;;;;;;;9.53;8.57;;;10.80;99.90;;;;;;4972520;28;20410;-67